Time;durP1;ratioP1;P1;durP2;ratioP2;P2;SDS_P1;SDS_P2;PMS_P1;PMS_P2;Temp;Humidity;BMP_temperature;BMP_pressure;BME280_temperature;BME280_humidity;BME280_pressure;Samples;Min_cycle;Max_cycle;Signal;HPM_P1;HPM_P2
2023/09/25 00:00:08;;;;;;;3.60;2.10;;;9.70;98.00;;;;;;5031545;28;20994;-71
2023/09/25 00:02:35;;;;;;;5.93;2.80;;;9.70;98.00;;;;;;5031634;28;21158;-72
2023/09/25 00:05:02;;;;;;;3.97;2.37;;;9.70;98.00;;;;;;5031559;28;20454;-73
2023/09/25 00:07:29;;;;;;;7.03;2.70;;;9.70;98.00;;;;;;5035148;28;20458;-71
2023/09/25 00:09:57;;;;;;;5.07;2.73;;;9.60;98.00;;;;;;5034270;28;20486;-72
2023/09/25 00:12:25;;;;;;;3.10;2.00;;;9.60;98.00;;;;;;5034293;28;20958;-72
2023/09/25 00:14:52;;;;;;;4.53;2.50;;;9.60;98.00;;;;;;5035414;28;20466;-73
2023/09/25 00:17:19;;;;;;;3.33;2.43;;;9.50;98.00;;;;;;5035605;28;20470;-72
2023/09/25 00:19:46;;;;;;;6.70;2.90;;;9.70;98.00;;;;;;5035415;28;20465;-73
2023/09/25 00:22:13;;;;;;;3.67;2.33;;;9.70;98.00;;;;;;5035506;28;20457;-71
2023/09/25 00:24:41;;;;;;;6.87;2.70;;;9.60;98.00;;;;;;5035290;28;20467;-72
2023/09/25 00:27:09;;;;;;;3.20;2.03;;;9.50;98.00;;;;;;5035460;28;20486;-72
2023/09/25 00:29:38;;;;;;;4.50;2.67;;;9.50;98.00;;;;;;5035356;28;20448;-72
2023/09/25 00:32:05;;;;;;;4.23;2.50;;;9.30;98.00;;;;;;5035381;28;20917;-72
2023/09/25 00:34:32;;;;;;;4.60;2.77;;;9.30;98.00;;;;;;5035444;28;20945;-71
2023/09/25 00:37:00;;;;;;;18.57;2.93;;;9.30;98.00;;;;;;5035270;28;20917;-72
2023/09/25 00:39:27;;;;;;;4.80;2.40;;;9.20;98.00;;;;;;5035445;28;20826;-73
2023/09/25 00:41:54;;;;;;;4.87;2.60;;;9.30;98.00;;;;;;5035037;28;20505;-71
2023/09/25 00:44:22;;;;;;;5.73;2.67;;;9.40;98.00;;;;;;5035477;28;20451;-72
2023/09/25 00:46:53;;;;;;;4.63;2.43;;;9.60;98.00;;;;;;5035277;28;20452;-72
2023/09/25 00:49:20;;;;;;;3.60;2.50;;;9.40;98.00;;;;;;5035201;28;20947;-72
2023/09/25 00:51:48;;;;;;;4.40;2.20;;;9.30;98.00;;;;;;5034882;28;20482;-72
2023/09/25 00:54:18;;;;;;;5.40;2.83;;;9.20;98.00;;;;;;5033809;28;20879;-71
2023/09/25 00:56:47;;;;;;;3.87;2.47;;;9.00;98.00;;;;;;5034467;28;20502;-72
2023/09/25 00:59:14;;;;;;;4.73;2.80;;;9.00;98.00;;;;;;5034721;28;20461;-72
2023/09/25 01:01:43;;;;;;;5.60;2.87;;;8.90;98.00;;;;;;5034527;28;20451;-72
2023/09/25 01:04:11;;;;;;;5.90;2.93;;;8.80;98.00;;;;;;5033421;28;20455;-72
2023/09/25 01:06:38;;;;;;;4.13;2.27;;;8.70;98.00;;;;;;5034223;28;20458;-73
2023/09/25 01:09:08;;;;;;;4.00;2.73;;;8.90;98.00;;;;;;5033450;28;20470;-71
2023/09/25 01:11:36;;;;;;;5.30;2.90;;;8.80;98.00;;;;;;5034165;28;20485;-72
2023/09/25 01:14:03;;;;;;;5.00;2.60;;;8.70;98.00;;;;;;5034483;28;20979;-71
2023/09/25 01:16:31;;;;;;;4.70;2.50;;;8.80;98.00;;;;;;5033968;28;20509;-72
2023/09/25 01:18:59;;;;;;;4.90;2.67;;;8.90;98.00;;;;;;5034371;28;20459;-71
2023/09/25 01:21:28;;;;;;;4.37;2.60;;;8.90;98.00;;;;;;5033045;28;21074;-72
2023/09/25 01:23:57;;;;;;;4.13;2.53;;;8.90;98.00;;;;;;5034030;28;20482;-72
2023/09/25 01:26:24;;;;;;;6.63;2.63;;;9.00;98.00;;;;;;5034053;28;20454;-72
2023/09/25 01:28:51;;;;;;;3.33;2.30;;;9.00;98.00;;;;;;5033924;28;20446;-72
2023/09/25 01:31:19;;;;;;;5.90;3.27;;;8.80;98.00;;;;;;5034130;28;20495;-71
2023/09/25 01:33:48;;;;;;;4.27;2.40;;;9.00;98.00;;;;;;5034153;28;20454;-72
2023/09/25 01:36:16;;;;;;;4.03;2.50;;;9.00;98.00;;;;;;5033956;28;20476;-73
2023/09/25 01:38:45;;;;;;;3.40;2.20;;;8.90;98.00;;;;;;5034010;28;20473;-73
2023/09/25 01:41:15;;;;;;;3.83;2.40;;;9.00;98.00;;;;;;5033968;28;20461;-71
2023/09/25 01:43:43;;;;;;;4.40;2.77;;;8.90;98.00;;;;;;5033932;28;20496;-73
2023/09/25 01:46:10;;;;;;;6.77;2.83;;;8.80;98.00;;;;;;5032935;28;20554;-72
2023/09/25 01:48:37;;;;;;;5.50;2.67;;;8.80;98.00;;;;;;5032630;28;20494;-72
2023/09/25 01:51:10;;;;;;;3.87;2.40;;;8.80;98.00;;;;;;5033562;28;20493;-74
2023/09/25 01:53:37;;;;;;;6.70;2.90;;;8.90;98.00;;;;;;5032533;28;20469;-72
2023/09/25 01:56:12;;;;;;;5.10;2.60;;;8.80;98.00;;;;;;5033826;28;20928;-74
2023/09/25 01:58:41;;;;;;;5.50;2.90;;;8.80;98.00;;;;;;5033649;28;20460;-72
2023/09/25 02:01:08;;;;;;;2.60;2.17;;;8.80;98.00;;;;;;5033524;28;20545;-73
2023/09/25 02:03:35;;;;;;;5.13;2.57;;;8.80;98.00;;;;;;5033528;28;20463;-72
2023/09/25 02:06:03;;;;;;;3.83;2.47;;;8.90;98.00;;;;;;5033902;28;20863;-72
2023/09/25 02:08:31;;;;;;;4.40;2.93;;;8.90;98.00;;;;;;5033305;28;20450;-71
2023/09/25 02:10:58;;;;;;;5.70;2.73;;;8.80;98.00;;;;;;5033344;28;20483;-72
2023/09/25 02:13:25;;;;;;;4.53;2.70;;;8.80;98.00;;;;;;5033499;28;20807;-72
2023/09/25 02:15:54;;;;;;;3.80;2.57;;;8.70;98.00;;;;;;5033474;28;20460;-74
2023/09/25 02:18:22;;;;;;;5.10;2.37;;;8.70;98.00;;;;;;5033514;28;20502;-72
2023/09/25 02:20:49;;;;;;;4.50;2.60;;;8.80;98.00;;;;;;5033215;28;20480;-72
2023/09/25 02:23:17;;;;;;;4.03;2.50;;;8.80;98.00;;;;;;5033420;28;20537;-72
2023/09/25 02:25:44;;;;;;;6.17;2.57;;;8.80;98.00;;;;;;5033107;28;20806;-72
2023/09/25 02:28:11;;;;;;;4.80;2.40;;;8.70;98.00;;;;;;5033111;28;20456;-71
2023/09/25 02:30:38;;;;;;;5.90;3.17;;;8.60;98.00;;;;;;5031776;28;20462;-71
2023/09/25 02:33:07;;;;;;;4.50;2.83;;;8.70;98.00;;;;;;5033210;28;20478;-72
2023/09/25 02:35:35;;;;;;;4.47;2.60;;;8.80;98.00;;;;;;5033076;28;20819;-72
2023/09/25 02:38:14;;;;;;;4.40;2.67;;;8.70;98.00;;;;;;5032730;28;20537;-73
2023/09/25 02:40:41;;;;;;;6.57;2.47;;;8.70;98.00;;;;;;5031707;28;20508;-71
2023/09/25 02:43:09;;;;;;;3.50;2.43;;;8.70;98.00;;;;;;5032804;28;20459;-72
2023/09/25 02:45:36;;;;;;;3.73;2.30;;;8.70;98.00;;;;;;5032973;28;21074;-72
2023/09/25 02:48:03;;;;;;;4.80;2.90;;;8.60;98.00;;;;;;5032331;28;20459;-72
2023/09/25 02:50:31;;;;;;;5.63;2.90;;;8.50;98.00;;;;;;5032627;28;20459;-70
2023/09/25 02:52:58;;;;;;;4.23;2.77;;;8.60;98.00;;;;;;5032364;28;21001;-72
2023/09/25 02:55:26;;;;;;;8.23;2.60;;;8.50;98.00;;;;;;5032640;28;20465;-73
2023/09/25 02:57:53;;;;;;;3.03;2.10;;;8.60;98.00;;;;;;5032345;28;20529;-72
2023/09/25 03:00:21;;;;;;;2.93;2.00;;;8.50;98.00;;;;;;5032384;28;20451;-73
2023/09/25 03:02:48;;;;;;;4.50;2.40;;;8.70;98.00;;;;;;5032184;28;20458;-71
2023/09/25 03:05:16;;;;;;;4.07;2.37;;;8.60;98.00;;;;;;5032410;28;20458;-71
2023/09/25 03:07:45;;;;;;;5.20;2.73;;;8.70;98.00;;;;;;5030905;28;20539;-73
2023/09/25 03:10:13;;;;;;;3.30;2.23;;;8.80;98.00;;;;;;5032120;28;20999;-71
2023/09/25 03:12:40;;;;;;;4.50;2.60;;;8.60;98.00;;;;;;5030792;28;20864;-71
2023/09/25 03:15:08;;;;;;;4.37;2.30;;;8.50;98.00;;;;;;5032232;28;20458;-71
2023/09/25 03:17:36;;;;;;;4.50;2.50;;;8.30;98.00;;;;;;5031960;28;20453;-72
2023/09/25 03:20:14;;;;;;;4.63;2.73;;;8.30;98.00;;;;;;5032035;28;20452;-72
2023/09/25 03:22:42;;;;;;;4.60;2.53;;;8.50;98.00;;;;;;5031988;28;20443;-72
2023/09/25 03:25:11;;;;;;;4.07;2.50;;;8.30;98.00;;;;;;5031866;28;20470;-72
2023/09/25 03:27:38;;;;;;;6.80;2.40;;;8.30;98.00;;;;;;5031942;28;20558;-73
2023/09/25 03:30:06;;;;;;;4.07;2.33;;;8.30;98.00;;;;;;5032116;28;20867;-71
2023/09/25 03:32:37;;;;;;;6.10;2.90;;;8.30;98.00;;;;;;5031686;28;20488;-72
2023/09/25 03:35:06;;;;;;;6.17;2.70;;;8.30;98.00;;;;;;5032174;28;20871;-71
2023/09/25 03:37:33;;;;;;;4.07;2.67;;;8.30;98.00;;;;;;5031835;28;20454;-73
2023/09/25 03:40:00;;;;;;;4.60;2.53;;;8.30;98.00;;;;;;5031962;28;20455;-72
2023/09/25 03:42:29;;;;;;;4.83;2.97;;;8.30;98.00;;;;;;5031821;28;20509;-72
2023/09/25 03:44:56;;;;;;;4.00;2.40;;;8.30;98.00;;;;;;5031898;28;20462;-72
2023/09/25 03:47:23;;;;;;;3.90;2.50;;;8.30;98.00;;;;;;5031856;28;20462;-72
2023/09/25 03:49:50;;;;;;;5.10;2.43;;;8.40;98.00;;;;;;5031744;28;20513;-72
2023/09/25 03:52:17;;;;;;;5.17;2.43;;;8.50;98.00;;;;;;5031765;28;20493;-71
2023/09/25 03:54:45;;;;;;;4.73;2.37;;;8.60;98.00;;;;;;5031749;28;20938;-74
2023/09/25 03:57:13;;;;;;;5.07;2.20;;;8.50;98.00;;;;;;5031870;28;20451;-71
2023/09/25 03:59:41;;;;;;;5.17;2.63;;;8.40;98.00;;;;;;5031875;28;20453;-71
2023/09/25 04:02:08;;;;;;;4.10;2.60;;;8.40;98.00;;;;;;5030578;28;20808;-73
2023/09/25 04:04:36;;;;;;;5.87;2.50;;;8.30;98.00;;;;;;5031740;28;20448;-72
2023/09/25 04:07:03;;;;;;;4.23;2.60;;;8.20;98.00;;;;;;5030694;28;20458;-73
2023/09/25 04:09:31;;;;;;;4.37;2.83;;;8.20;98.00;;;;;;5031980;28;20461;-73
2023/09/25 04:11:59;;;;;;;5.10;2.47;;;8.30;98.00;;;;;;5031657;28;20487;-72
2023/09/25 04:14:27;;;;;;;4.40;2.60;;;8.30;98.00;;;;;;5031697;28;20546;-71
2023/09/25 04:16:56;;;;;;;4.07;2.20;;;8.20;98.00;;;;;;5031715;28;20489;-72
2023/09/25 04:19:23;;;;;;;5.10;2.53;;;8.30;98.00;;;;;;5031644;28;20534;-72
2023/09/25 04:21:59;;;;;;;3.53;2.30;;;8.30;98.00;;;;;;5031182;28;20979;-72
2023/09/25 04:24:26;;;;;;;3.30;2.17;;;8.20;98.00;;;;;;5031395;28;20475;-72
2023/09/25 04:26:53;;;;;;;4.10;2.63;;;8.20;98.00;;;;;;5031356;28;20929;-71
2023/09/25 04:29:21;;;;;;;2.77;2.20;;;8.40;98.00;;;;;;5031237;28;20456;-72
2023/09/25 04:31:49;;;;;;;3.57;2.53;;;8.20;98.00;;;;;;5029882;28;20533;-72
2023/09/25 04:34:19;;;;;;;4.80;2.73;;;8.20;98.00;;;;;;5031383;28;20471;-72
2023/09/25 04:36:46;;;;;;;4.83;2.50;;;8.10;98.00;;;;;;5031199;28;20459;-72
2023/09/25 04:39:16;;;;;;;4.00;2.50;;;8.10;98.00;;;;;;5029806;28;21008;-71
2023/09/25 04:41:43;;;;;;;6.73;2.40;;;8.10;98.00;;;;;;5031039;28;20482;-72
2023/09/25 04:44:11;;;;;;;6.90;2.50;;;8.10;98.00;;;;;;5031390;28;20462;-72
2023/09/25 04:46:38;;;;;;;5.00;2.77;;;8.20;98.00;;;;;;5031134;28;20470;-72
2023/09/25 04:49:06;;;;;;;6.57;2.50;;;8.20;98.00;;;;;;5031194;28;20542;-71
2023/09/25 04:51:35;;;;;;;4.63;2.60;;;8.20;98.00;;;;;;5031390;28;20478;-72
2023/09/25 04:54:03;;;;;;;4.00;2.70;;;8.20;98.00;;;;;;5034801;28;20469;-72
2023/09/25 04:56:30;;;;;;;4.33;2.60;;;8.20;98.00;;;;;;5034664;28;20457;-72
2023/09/25 04:58:58;;;;;;;3.93;2.40;;;8.30;98.00;;;;;;5033753;28;20551;-72
2023/09/25 05:01:25;;;;;;;5.37;2.60;;;8.20;98.00;;;;;;5034497;28;20931;-71
2023/09/25 05:03:52;;;;;;;9.20;2.73;;;8.10;98.00;;;;;;5034570;28;20452;-73
2023/09/25 05:06:20;;;;;;;5.40;2.60;;;8.10;98.00;;;;;;5034427;28;20458;-72
2023/09/25 05:08:49;;;;;;;4.10;2.57;;;8.00;98.00;;;;;;5034558;28;20859;-72
2023/09/25 05:11:16;;;;;;;3.47;2.60;;;8.00;98.00;;;;;;5034587;28;20494;-71
2023/09/25 05:13:43;;;;;;;4.97;2.47;;;7.90;98.00;;;;;;5033139;28;20482;-72
2023/09/25 05:16:10;;;;;;;4.13;2.40;;;8.00;98.00;;;;;;5034056;28;20455;-74
2023/09/25 05:18:37;;;;;;;4.37;2.67;;;8.10;98.00;;;;;;5034327;28;20443;-71
2023/09/25 05:21:04;;;;;;;6.07;2.67;;;8.10;98.00;;;;;;5034344;28;20458;-71
2023/09/25 05:23:33;;;;;;;4.20;2.50;;;8.10;98.00;;;;;;5032866;28;20811;-72
2023/09/25 05:26:02;;;;;;;5.77;2.57;;;8.10;98.00;;;;;;5034254;28;20494;-72
2023/09/25 05:28:29;;;;;;;4.20;2.60;;;8.20;98.00;;;;;;5034499;28;20500;-73
2023/09/25 05:30:57;;;;;;;3.60;2.50;;;8.30;98.00;;;;;;5034318;28;20805;-71
2023/09/25 05:33:24;;;;;;;5.17;2.83;;;8.30;98.00;;;;;;5032894;28;20518;-73
2023/09/25 05:35:51;;;;;;;4.60;2.43;;;8.40;98.00;;;;;;5034108;28;20462;-71
2023/09/25 05:38:18;;;;;;;3.73;2.30;;;8.40;98.00;;;;;;5033865;28;20473;-71
2023/09/25 05:40:45;;;;;;;4.53;2.47;;;8.50;98.00;;;;;;5034179;28;20505;-72
2023/09/25 05:43:16;;;;;;;4.10;2.50;;;8.40;98.00;;;;;;5034104;28;20452;-72
2023/09/25 05:45:43;;;;;;;4.13;2.23;;;8.40;98.00;;;;;;5033781;28;20458;-70
2023/09/25 05:48:11;;;;;;;4.07;2.60;;;8.30;98.00;;;;;;5033456;28;20443;-70
2023/09/25 05:50:39;;;;;;;4.50;2.40;;;8.30;98.00;;;;;;5034007;28;20949;-71
2023/09/25 05:53:09;;;;;;;6.80;2.40;;;8.40;98.00;;;;;;5034194;28;20515;-70
2023/09/25 05:55:36;;;;;;;4.90;2.87;;;8.40;98.00;;;;;;5032807;28;20463;-71
2023/09/25 05:58:11;;;;;;;4.03;2.27;;;8.50;98.00;;;;;;5033648;28;20805;-70
2023/09/25 06:00:44;;;;;;;4.17;2.50;;;8.70;98.00;;;;;;5033765;28;20454;-71
2023/09/25 06:03:11;;;;;;;6.27;2.67;;;8.60;98.00;;;;;;5032072;28;20963;-70
2023/09/25 06:05:38;;;;;;;5.07;2.80;;;8.70;98.00;;;;;;5033007;28;20809;-70
2023/09/25 06:08:07;;;;;;;4.10;2.30;;;8.80;98.00;;;;;;5033232;28;20454;-71
2023/09/25 06:10:34;;;;;;;3.83;2.40;;;8.70;98.00;;;;;;5033434;28;20545;-70
2023/09/25 06:13:01;;;;;;;10.80;4.27;;;8.70;98.00;;;;;;5032691;28;20521;-70
2023/09/25 06:15:30;;;;;;;7.93;3.20;;;8.60;98.00;;;;;;5033290;28;20460;-70
2023/09/25 06:17:59;;;;;;;5.80;3.57;;;8.40;98.00;;;;;;5032566;28;20542;-71
2023/09/25 06:20:27;;;;;;;6.07;3.50;;;8.40;98.00;;;;;;5032611;28;20454;-70
2023/09/25 06:22:54;;;;;;;5.37;2.87;;;8.50;98.00;;;;;;5032583;28;20509;-72
2023/09/25 06:25:21;;;;;;;6.27;2.80;;;8.60;98.00;;;;;;5032452;28;20840;-70
2023/09/25 06:27:49;;;;;;;7.93;3.07;;;8.80;98.00;;;;;;5032429;28;20447;-69
2023/09/25 06:30:19;;;;;;;5.33;2.70;;;8.90;98.00;;;;;;5032353;28;20454;-69
2023/09/25 06:32:50;;;;;;;14.50;6.60;;;8.90;98.00;;;;;;5032129;28;20774;-69
2023/09/25 06:35:19;;;;;;;8.60;4.10;;;8.80;98.00;;;;;;5031168;28;20451;-69
2023/09/25 06:37:46;;;;;;;8.37;4.10;;;9.00;98.00;;;;;;5032217;28;20448;-70
2023/09/25 06:40:15;;;;;;;5.87;3.47;;;9.00;98.00;;;;;;5032252;28;20454;-70
2023/09/25 06:42:43;;;;;;;5.90;3.07;;;9.20;98.00;;;;;;5032094;28;20489;-69
2023/09/25 06:45:11;;;;;;;5.70;3.20;;;9.10;98.00;;;;;;5030732;28;20523;-69
2023/09/25 06:47:38;;;;;;;7.50;2.90;;;9.10;98.00;;;;;;5031828;28;20492;-70
2023/09/25 06:50:06;;;;;;;4.90;2.80;;;9.20;98.00;;;;;;5032122;28;20459;-69
2023/09/25 06:52:36;;;;;;;5.97;2.80;;;9.20;98.00;;;;;;5031883;28;20493;-69
2023/09/25 06:55:03;;;;;;;6.13;3.30;;;9.30;98.00;;;;;;5032206;28;20830;-69
2023/09/25 06:57:30;;;;;;;4.60;3.00;;;9.40;98.00;;;;;;5031775;28;20456;-73
2023/09/25 06:59:57;;;;;;;4.97;2.63;;;9.40;98.00;;;;;;5031813;28;20546;-70
2023/09/25 07:02:25;;;;;;;7.47;2.90;;;9.50;98.00;;;;;;5031707;28;20442;-70
2023/09/25 07:04:52;;;;;;;4.90;2.53;;;9.60;98.00;;;;;;5031890;28;20492;-69
2023/09/25 07:07:19;;;;;;;5.17;2.70;;;9.70;98.00;;;;;;5031819;28;20459;-71
2023/09/25 07:09:48;;;;;;;4.50;2.70;;;9.80;98.00;;;;;;5031699;28;20937;-70
2023/09/25 07:12:17;;;;;;;5.40;2.83;;;10.00;98.00;;;;;;5031615;28;20467;-72
2023/09/25 07:14:48;;;;;;;6.97;3.00;;;10.00;98.00;;;;;;5014122;28;20472;-71
2023/09/25 07:17:16;;;;;;;4.67;2.70;;;10.10;98.00;;;;;;5031560;28;20452;-71
2023/09/25 07:19:43;;;;;;;3.77;2.57;;;10.20;98.00;;;;;;5031830;28;20858;-69
2023/09/25 07:22:10;;;;;;;4.60;2.97;;;10.30;98.00;;;;;;5025548;28;20467;-70
2023/09/25 07:24:38;;;;;;;4.00;2.60;;;10.40;98.00;;;;;;5011783;28;20549;-70
2023/09/25 07:27:06;;;;;;;3.87;2.70;;;10.50;98.00;;;;;;5012177;28;20458;-70
2023/09/25 07:29:34;;;;;;;4.00;2.47;;;10.60;98.00;;;;;;5012773;28;20462;-70
2023/09/25 07:32:01;;;;;;;3.47;2.43;;;10.70;98.00;;;;;;5011810;28;20466;-70
2023/09/25 07:34:29;;;;;;;4.40;2.70;;;10.80;98.00;;;;;;5020971;28;20495;-70
2023/09/25 07:36:56;;;;;;;5.13;2.23;;;10.90;98.00;;;;;;5031141;28;20958;-70
2023/09/25 07:39:23;;;;;;;4.93;2.77;;;11.10;98.00;;;;;;5031702;28;20454;-71
2023/09/25 07:41:50;;;;;;;5.80;2.77;;;11.20;98.00;;;;;;5030077;28;20566;-70
2023/09/25 07:44:19;;;;;;;3.50;2.33;;;11.30;98.00;;;;;;5031263;28;20552;-70
2023/09/25 07:46:47;;;;;;;4.83;2.37;;;11.40;98.00;;;;;;5030991;28;20459;-71
2023/09/25 07:49:14;;;;;;;3.27;2.30;;;11.50;98.00;;;;;;5031026;28;20543;-71
2023/09/25 07:51:41;;;;;;;3.20;2.40;;;11.70;98.00;;;;;;5030852;28;20453;-68
2023/09/25 07:54:08;;;;;;;5.50;2.73;;;11.80;98.00;;;;;;5031107;28;20846;-69
2023/09/25 07:56:35;;;;;;;7.10;3.03;;;12.00;98.00;;;;;;5030935;28;20455;-71
2023/09/25 07:59:04;;;;;;;5.00;2.63;;;12.10;98.00;;;;;;5029942;28;20453;-75
2023/09/25 08:01:34;;;;;;;6.53;3.20;;;12.30;98.00;;;;;;5030879;28;20816;-73
2023/09/25 08:04:01;;;;;;;5.03;2.87;;;12.40;98.00;;;;;;5030977;28;20480;-74
2023/09/25 08:06:28;;;;;;;5.60;2.70;;;12.60;98.00;;;;;;5030940;28;20461;-72
2023/09/25 08:08:57;;;;;;;3.90;2.60;;;12.80;98.00;;;;;;5031211;28;20456;-72
2023/09/25 08:11:24;;;;;;;4.60;2.70;;;13.00;98.00;;;;;;5031549;28;20953;-73
2023/09/25 08:13:53;;;;;;;3.63;2.60;;;13.20;98.00;;;;;;5031398;28;20491;-73
2023/09/25 08:16:22;;;;;;;6.23;3.27;;;13.40;98.00;;;;;;5031419;28;20456;-73
2023/09/25 08:18:50;;;;;;;7.10;3.50;;;13.60;98.00;;;;;;5030217;28;20456;-73
2023/09/25 08:21:19;;;;;;;7.37;2.97;;;13.70;98.00;;;;;;5031558;28;20457;-72
2023/09/25 08:23:46;;;;;;;7.20;3.63;;;13.90;98.00;;;;;;5031248;28;20949;-73
2023/09/25 08:26:13;;;;;;;9.30;3.23;;;14.00;98.00;;;;;;5030203;28;20453;-73
2023/09/25 08:28:40;;;;;;;4.10;2.70;;;14.20;98.00;;;;;;5035110;28;20951;-73
2023/09/25 08:31:07;;;;;;;6.87;3.20;;;14.40;98.00;;;;;;5033981;28;21202;-72
2023/09/25 08:33:36;;;;;;;5.40;3.27;;;14.50;98.00;;;;;;5034961;28;20488;-72
2023/09/25 08:36:09;;;;;;;5.90;3.03;;;14.80;98.00;;;;;;5022839;28;20467;-71
2023/09/25 08:38:36;;;;;;;5.23;3.10;;;15.00;98.00;;;;;;4995856;28;20459;-71
2023/09/25 08:41:03;;;;;;;6.33;3.10;;;15.20;98.00;;;;;;4995708;28;20507;-70
2023/09/25 08:43:33;;;;;;;5.70;3.40;;;15.40;98.00;;;;;;4994311;28;20532;-71
2023/09/25 08:46:01;;;;;;;5.57;3.13;;;15.50;98.00;;;;;;4993797;28;20479;-72
2023/09/25 08:48:30;;;;;;;7.07;3.37;;;15.70;98.00;;;;;;5027974;28;20450;-70
2023/09/25 08:50:57;;;;;;;4.40;3.10;;;15.80;98.00;;;;;;5035414;28;20458;-72
2023/09/25 08:53:26;;;;;;;5.33;2.83;;;16.00;98.00;;;;;;5034583;28;20508;-71
2023/09/25 08:55:53;;;;;;;4.43;2.80;;;16.10;98.00;;;;;;5034879;28;20446;-70
2023/09/25 08:58:21;;;;;;;5.70;3.03;;;16.30;98.00;;;;;;5033508;28;20872;-72
2023/09/25 09:00:48;;;;;;;6.67;3.63;;;16.50;98.00;;;;;;5034854;28;20542;-71
2023/09/25 09:03:16;;;;;;;6.73;3.43;;;16.70;98.00;;;;;;5034640;28;20454;-70
2023/09/25 09:05:43;;;;;;;9.03;3.23;;;17.00;98.00;;;;;;5034693;28;20455;-70
2023/09/25 09:08:10;;;;;;;4.40;2.93;;;17.20;98.00;;;;;;5034800;28;20463;-71
2023/09/25 09:10:40;;;;;;;4.73;2.90;;;17.30;98.00;;;;;;5034630;28;20948;-71
2023/09/25 09:13:10;;;;;;;4.60;2.93;;;17.50;98.00;;;;;;5026590;28;20554;-71
2023/09/25 09:15:38;;;;;;;5.47;3.20;;;17.70;98.00;;;;;;5014565;28;20456;-72
2023/09/25 09:18:18;;;;;;;9.27;2.90;;;17.90;98.00;;;;;;5015012;28;20467;-72
2023/09/25 09:20:45;;;;;;;3.50;2.83;;;18.10;98.00;;;;;;5014362;28;20689;-71
2023/09/25 09:23:12;;;;;;;4.87;3.10;;;18.30;98.00;;;;;;5014244;28;20443;-71
2023/09/25 09:25:41;;;;;;;4.00;2.70;;;18.50;98.00;;;;;;5016484;28;20467;-72
2023/09/25 09:28:08;;;;;;;4.70;3.03;;;18.70;98.00;;;;;;4997024;28;20506;-71
2023/09/25 09:30:37;;;;;;;5.17;2.80;;;18.90;98.00;;;;;;5002634;28;20464;-72
2023/09/25 09:33:07;;;;;;;4.80;2.87;;;19.10;98.00;;;;;;5012988;28;20466;-71
2023/09/25 09:35:34;;;;;;;4.10;2.70;;;19.30;98.00;;;;;;5014109;28;20537;-71
2023/09/25 09:38:03;;;;;;;4.17;2.93;;;19.50;98.00;;;;;;5012627;28;20976;-72
2023/09/25 09:40:31;;;;;;;5.63;2.60;;;19.70;98.00;;;;;;5014047;28;20519;-71
2023/09/25 09:42:59;;;;;;;5.47;2.60;;;19.90;98.00;;;;;;5002146;28;20544;-69
2023/09/25 09:45:30;;;;;;;5.80;2.60;;;20.00;98.00;;;;;;5030342;28;20524;-70
2023/09/25 09:47:58;;;;;;;5.57;3.00;;;20.20;98.00;;;;;;5033971;28;20458;-69
2023/09/25 09:50:28;;;;;;;4.30;2.80;;;20.40;98.00;;;;;;5032457;28;20516;-70
2023/09/25 09:52:56;;;;;;;4.43;3.00;;;20.50;98.00;;;;;;5033466;28;20447;-70
2023/09/25 09:55:23;;;;;;;5.03;2.97;;;20.60;98.00;;;;;;5033391;28;20449;-70
2023/09/25 09:57:51;;;;;;;4.10;2.70;;;20.80;97.80;;;;;;5033058;28;20473;-70
2023/09/25 10:00:20;;;;;;;4.03;3.10;;;21.10;96.40;;;;;;5033416;28;20831;-70
2023/09/25 10:02:49;;;;;;;3.50;2.67;;;21.30;98.00;;;;;;5033220;28;20490;-70
2023/09/25 10:05:17;;;;;;;4.10;2.83;;;21.50;96.70;;;;;;5033459;28;20495;-70
2023/09/25 10:08:10;;;;;;;4.40;2.80;;;21.50;96.80;;;;;;5033367;28;20862;-70
2023/09/25 10:10:39;;;;;;;4.23;2.80;;;21.80;97.00;;;;;;5031600;28;20534;-71
2023/09/25 10:13:08;;;;;;;4.10;2.97;;;21.90;94.80;;;;;;5033169;28;21017;-71
2023/09/25 10:15:38;;;;;;;3.90;2.80;;;22.10;96.20;;;;;;5033501;28;20550;-70
2023/09/25 10:18:07;;;;;;;4.17;2.70;;;22.30;95.70;;;;;;5033216;28;20542;-69
2023/09/25 10:20:40;;;;;;;4.20;2.77;;;22.40;94.50;;;;;;5033294;28;20450;-70
2023/09/25 10:23:11;;;;;;;4.63;2.50;;;22.60;93.90;;;;;;5033088;28;20520;-70
2023/09/25 10:25:52;;;;;;;3.43;2.70;;;22.90;93.30;;;;;;5032984;28;20467;-71
2023/09/25 10:28:23;;;;;;;4.70;2.70;;;22.90;90.20;;;;;;5032580;28;20457;-71
2023/09/25 10:30:53;;;;;;;2.87;2.53;;;22.90;92.50;;;;;;5033159;28;20470;-71
2023/09/25 10:33:22;;;;;;;4.17;2.70;;;23.10;91.10;;;;;;5032965;28;20461;-72
2023/09/25 10:35:58;;;;;;;3.20;2.73;;;23.20;90.80;;;;;;5033055;28;20450;-71
2023/09/25 10:38:28;;;;;;;2.70;2.20;;;23.40;90.60;;;;;;5032969;28;20461;-70
2023/09/25 10:40:57;;;;;;;4.17;2.60;;;23.40;90.10;;;;;;5032923;28;20451;-70
2023/09/25 10:43:25;;;;;;;3.63;2.30;;;23.40;90.50;;;;;;5031781;28;20466;-72
2023/09/25 10:45:54;;;;;;;3.60;2.60;;;23.50;89.40;;;;;;5031672;28;20455;-71
2023/09/25 10:48:23;;;;;;;3.40;2.70;;;23.70;89.10;;;;;;5033039;28;20455;-70
2023/09/25 10:50:50;;;;;;;5.63;2.83;;;24.00;89.90;;;;;;5032448;28;20459;-70
2023/09/25 10:53:18;;;;;;;3.60;2.60;;;24.00;88.40;;;;;;5032487;28;20505;-70
2023/09/25 10:55:47;;;;;;;4.70;2.83;;;24.30;88.10;;;;;;5032500;28;20454;-71
2023/09/25 10:58:14;;;;;;;6.47;2.53;;;24.60;87.20;;;;;;5032542;28;20953;-70
2023/09/25 11:00:43;;;;;;;4.23;2.60;;;24.60;87.20;;;;;;5032320;28;20528;-70
2023/09/25 11:03:12;;;;;;;3.87;2.40;;;24.70;84.70;;;;;;5032319;28;20447;-71
2023/09/25 11:05:40;;;;;;;3.57;2.50;;;24.80;85.90;;;;;;5032481;28;20458;-70
2023/09/25 11:08:14;;;;;;;4.10;3.00;;;25.10;87.10;;;;;;5032362;28;20877;-70
2023/09/25 11:10:41;;;;;;;3.30;2.40;;;25.00;85.70;;;;;;5032185;28;20458;-70
2023/09/25 11:13:09;;;;;;;4.00;2.60;;;25.20;85.10;;;;;;5031902;28;20446;-72
2023/09/25 11:15:38;;;;;;;3.67;2.87;;;25.40;84.50;;;;;;5030903;28;20494;-70
2023/09/25 11:18:08;;;;;;;3.17;2.50;;;25.40;85.50;;;;;;5031948;28;20469;-72
2023/09/25 11:20:37;;;;;;;3.77;2.60;;;25.50;85.10;;;;;;5031931;28;21068;-72
2023/09/25 11:23:08;;;;;;;3.07;2.67;;;25.70;84.20;;;;;;5032012;28;20516;-72
2023/09/25 11:25:44;;;;;;;3.70;2.43;;;25.90;83.20;;;;;;5031735;28;20459;-71
2023/09/25 11:28:14;;;;;;;3.70;2.60;;;26.20;84.10;;;;;;5030672;28;20505;-71
2023/09/25 11:30:46;;;;;;;3.40;2.40;;;26.40;82.90;;;;;;5031546;28;20451;-71
2023/09/25 11:33:17;;;;;;;3.80;2.57;;;26.50;82.50;;;;;;5031307;28;20959;-71
2023/09/25 11:35:47;;;;;;;2.67;2.30;;;26.60;82.70;;;;;;5031109;28;20483;-71
2023/09/25 11:38:17;;;;;;;3.77;2.67;;;26.60;82.30;;;;;;5031006;28;20987;-72
2023/09/25 11:40:46;;;;;;;3.50;2.60;;;26.60;81.20;;;;;;5030811;28;20512;-72
2023/09/25 11:43:13;;;;;;;2.83;2.40;;;26.70;81.70;;;;;;5031061;28;20462;-71
2023/09/25 11:45:41;;;;;;;2.70;2.40;;;26.90;79.50;;;;;;5031054;28;20454;-71
2023/09/25 11:48:10;;;;;;;3.90;2.60;;;27.10;80.50;;;;;;5031062;28;20829;-72
2023/09/25 11:50:37;;;;;;;3.73;2.73;;;27.20;79.00;;;;;;5031226;28;20458;-72
2023/09/25 11:53:06;;;;;;;5.20;2.40;;;27.40;80.10;;;;;;5031104;28;20819;-73
2023/09/25 11:55:33;;;;;;;3.60;2.70;;;27.50;78.20;;;;;;5030858;28;20518;-68
2023/09/25 11:58:01;;;;;;;3.10;2.60;;;27.50;77.90;;;;;;5031000;28;20454;-71
2023/09/25 12:00:28;;;;;;;3.57;2.40;;;27.50;77.90;;;;;;5031036;28;20505;-71
2023/09/25 12:02:56;;;;;;;3.20;2.60;;;27.50;78.60;;;;;;5033709;28;20537;-71
2023/09/25 12:05:24;;;;;;;4.43;2.67;;;27.40;76.50;;;;;;5035192;28;20454;-70
2023/09/25 12:07:51;;;;;;;3.33;2.47;;;27.40;77.00;;;;;;5034915;28;20482;-70
2023/09/25 12:10:20;;;;;;;4.40;2.50;;;27.60;77.90;;;;;;5035138;28;20872;-69
2023/09/25 12:12:48;;;;;;;3.47;2.50;;;27.90;77.60;;;;;;5034966;28;20478;-69
2023/09/25 12:15:17;;;;;;;3.27;2.50;;;28.10;76.70;;;;;;5034935;28;20479;-69
2023/09/25 12:17:45;;;;;;;3.27;2.63;;;28.20;77.30;;;;;;5034825;28;20454;-69
2023/09/25 12:20:14;;;;;;;3.03;2.40;;;28.40;77.30;;;;;;5034856;28;21151;-70
2023/09/25 12:22:42;;;;;;;4.07;2.37;;;28.30;75.20;;;;;;5034801;28;20454;-70
2023/09/25 12:25:11;;;;;;;5.27;2.50;;;28.30;76.30;;;;;;5034618;28;20516;-70
2023/09/25 12:27:41;;;;;;;2.70;2.30;;;28.40;76.00;;;;;;5034635;28;20490;-73
2023/09/25 12:30:11;;;;;;;3.20;2.63;;;28.50;75.70;;;;;;5034994;28;20458;-69
2023/09/25 12:32:39;;;;;;;3.80;2.40;;;28.60;75.80;;;;;;5033625;28;20505;-70
2023/09/25 12:35:08;;;;;;;4.07;2.90;;;28.60;76.20;;;;;;5033798;28;20482;-69
2023/09/25 12:37:35;;;;;;;3.10;2.50;;;28.70;76.80;;;;;;5035324;28;20462;-69
2023/09/25 12:40:03;;;;;;;3.63;2.47;;;28.90;75.90;;;;;;5035469;28;20458;-71
2023/09/25 12:42:31;;;;;;;2.90;2.30;;;28.70;74.80;;;;;;5035148;28;20454;-71
2023/09/25 12:44:59;;;;;;;3.00;2.40;;;28.80;75.70;;;;;;5035329;28;20466;-69
2023/09/25 12:47:27;;;;;;;3.17;2.10;;;29.00;74.80;;;;;;5035030;28;20459;-69
2023/09/25 12:49:54;;;;;;;3.40;2.37;;;29.00;74.40;;;;;;5023912;28;21009;-69
2023/09/25 12:52:21;;;;;;;2.60;2.37;;;29.20;74.50;;;;;;5015265;28;20448;-69
2023/09/25 12:54:49;;;;;;;3.20;2.60;;;29.20;74.30;;;;;;5015053;28;20487;-71
2023/09/25 12:57:16;;;;;;;3.07;2.53;;;29.10;75.30;;;;;;5015282;28;20457;-70